Kezdőlap
METAR-TAF:

METAR-TAF

Repülőterek :

Nalcsik, Oroszország

földrajzi szélesség: 43-30-46N, földrajzi hosszúság: 043-38-12E, magasság: 445 m

Jelenlegi meteorológiai megfigyelések

A jelentés 19 perccel ezelõtt készült, 13:30 UTC
Szélcsend
Hőmérséklet 17°C
Páratartalom 59%
Légköri nyomás 1011 hPa
Látótávolság 10 km, vagy több
Szórványos felhőzet , Cumulonimbus.

METAR: URMN 311330Z 00000MPS 9999 SCT///CB 17/09 Q1011 R24/010070 NOSIG RMK QFE721

Idő: 17:49 (13:49 UTC)

Előrejelzés

A jelentés 2 órával és 49 perccel ezelõtt készült, 11:00 UTC
Az előrejelzés 31-én 12 óra UTC és 31-én 21 óra UTC között érvényes
Északkeleti szél 6 kt széllökések: 16 kt
Látótávolság 10 km, vagy több
Szakadozott felhőzet 2000 lábon, Cumulonimbus.

TAF: URMN 311100Z 3112/3121 04003G08MPS 9999 BKN020CB

Meteorológiai megfigyelések és előrejelzések több, mint 4000 repülőtéren (METAR és TAF jelentéseket).

A térképen piros és sárga pontok jelzik az elérhető meteorológiai állomásokat.

Mozgassa az egeret a pont fölött, hogy megjelenjen az állomás neve.

Azután kattintson az időjárási megfigyelések és előrejelzések megtekintéséhez.

A térkép megváltoztatása: kattintson a fekete keresztel jelölt zöld gombra ráközelítéshez, a vonallal jelölt zöld gombra távolításhoz, vagy a zöld nyilakra a szomszédos térképek eléréséhez.


METAR-TAF: